Hochheim, Texas
Current Conditions -  °F | °C
As of 11:05 AM on Thursday 30 Oct 2014 (Local Time) from KVCT Reporting Station
Scattered Clouds Scattered Clouds  
Wind Chill: 76°   Ceiling: Unl
Heat Index: 76°   Visibility: 10mi
Dew Point: 63°   Wind: 6mph
Humidity: 64%   Direction: 80°E
Pressure: 30.13"   Gusts: NA
Location:  29.31°N, 97.29°W
Report Text: KVCT 301605Z 08005KT 10SM FEW018 SCT024 24/17 A3013 RMK AO2 T02440172
Loading
Personal Weather Stations






























Interactive Weather Map
Tropical Storm Tracking
New forecast layout! Learn more

10-Day Weather Forecast

Advertisements
Track Severe Weather on mobile